Time,TemperatureF,DewpointF,PressureIn,WindDirection,WindDirectionDegrees,WindSpeedMPH,WindSpeedGustMPH,Humidity,HourlyPrecipIn,Conditions,Clouds,dailyrainin,SoftwareType,DateUTC
2013-01-17 00:02:00,35.0,15.0,30.23,SE,145,8.0,9.0,43,0.00,,,0.00,,2013-01-17 08:02:00,
2013-01-17 00:11:00,35.0,15.0,30.23,SE,145,8.0,9.0,43,0.00,,,0.00,,2013-01-17 08:11:00,
2013-01-17 00:22:00,35.0,15.0,30.23,SE,125,6.0,8.0,43,0.00,,,0.00,,2013-01-17 08:22:00,
2013-01-17 00:32:00,35.0,15.0,30.26,SE,126,6.0,7.0,43,0.00,,,0.00,,2013-01-17 08:32:00,
2013-01-17 00:43:00,35.0,15.0,30.26,SE,126,6.0,7.0,43,0.00,,,0.00,,2013-01-17 08:43:00,
2013-01-17 00:52:00,34.0,14.0,30.26,SSE,158,5.0,7.0,43,0.00,,,0.00,,2013-01-17 08:52:00,
2013-01-17 01:02:00,35.0,15.0,30.23,SSE,149,7.0,8.0,43,0.00,,,0.00,,2013-01-17 09:02:00,
2013-01-17 01:12:00,35.0,15.0,30.23,SSE,149,7.0,8.0,43,0.00,,,0.00,,2013-01-17 09:12:00,
2013-01-17 01:22:00,35.0,15.0,30.23,SSE,147,7.0,8.0,43,0.00,,,0.00,,2013-01-17 09:22:00,
2013-01-17 01:32:00,34.0,14.0,30.23,SSE,151,3.0,3.0,43,0.00,,,0.00,,2013-01-17 09:32:00,
2013-01-17 01:42:00,34.0,14.0,30.23,SSE,151,3.0,3.0,43,0.00,,,0.00,,2013-01-17 09:42:00,
2013-01-17 01:52:00,33.0,13.0,30.23,SSE,154,7.0,8.0,44,0.00,,,0.00,,2013-01-17 09:52:00,
2013-01-17 02:02:00,33.0,13.0,30.26,SSE,158,5.0,7.0,44,0.00,,,0.00,,2013-01-17 10:02:00,
2013-01-17 02:11:00,33.0,13.0,30.26,SSE,158,5.0,7.0,44,0.00,,,0.00,,2013-01-17 10:11:00,
2013-01-17 02:22:00,33.0,13.0,30.26,SE,129,6.0,7.0,44,0.00,,,0.00,,2013-01-17 10:22:00,
2013-01-17 02:32:00,33.0,13.0,30.23,SSE,158,7.0,8.0,44,0.00,,,0.00,,2013-01-17 10:32:00,
2013-01-17 02:42:00,33.0,13.0,30.23,SSE,158,7.0,8.0,44,0.00,,,0.00,,2013-01-17 10:42:00,
2013-01-17 02:52:00,33.0,13.0,30.23,SSE,158,7.0,8.0,44,0.00,,,0.00,,2013-01-17 10:52:00,
2013-01-17 03:02:00,33.0,13.0,30.23,SSE,158,5.0,6.0,44,0.00,,,0.00,,2013-01-17 11:02:00,
2013-01-17 03:11:00,33.0,13.0,30.23,SSE,158,5.0,6.0,44,0.00,,,0.00,,2013-01-17 11:11:00,
2013-01-17 03:22:00,33.0,13.0,30.23,SW,236,2.0,7.0,44,0.00,,,0.00,,2013-01-17 11:22:00,
2013-01-17 03:32:00,32.0,13.0,30.23,East,90,0.0,3.0,44,0.00,,,0.00,,2013-01-17 11:32:00,
2013-01-17 03:42:00,32.0,13.0,30.23,East,90,0.0,3.0,44,0.00,,,0.00,,2013-01-17 11:42:00,
2013-01-17 03:52:00,31.0,12.0,30.23,SSE,158,1.0,2.0,45,0.00,,,0.00,,2013-01-17 11:52:00,
2013-01-17 04:02:00,29.0,12.0,30.23,ESE,121,3.0,3.0,48,0.00,,,0.00,,2013-01-17 12:02:00,
2013-01-17 04:22:00,29.0,12.0,30.23,ESE,102,2.0,3.0,48,0.00,,,0.00,,2013-01-17 12:22:00,
2013-01-17 04:32:00,28.0,11.0,30.23,East,90,0.0,1.0,49,0.00,,,0.00,,2013-01-17 12:32:00,
2013-01-17 04:42:00,28.0,11.0,30.23,East,90,0.0,1.0,49,0.00,,,0.00,,2013-01-17 12:42:00,
2013-01-17 04:52:00,28.0,11.0,30.23,ESE,112,1.0,1.0,49,0.00,,,0.00,,2013-01-17 12:52:00,
2013-01-17 05:02:00,28.0,13.0,30.23,SSE,158,4.0,5.0,52,0.00,,,0.00,,2013-01-17 13:02:00,
2013-01-17 05:22:00,28.0,13.0,30.23,SE,131,3.0,5.0,52,0.00,,,0.00,,2013-01-17 13:22:00,
2013-01-17 05:33:00,28.0,13.0,30.23,ESE,118,3.0,5.0,52,0.00,,,0.00,,2013-01-17 13:33:00,
2013-01-17 05:52:00,28.0,13.0,30.23,SE,125,5.0,6.0,52,0.00,,,0.00,,2013-01-17 13:52:00,
2013-01-17 06:03:00,28.0,13.0,30.23,ESE,107,2.0,3.0,53,0.00,,,0.00,,2013-01-17 14:03:00,
2013-01-17 06:23:00,28.0,14.0,30.23,East,100,4.0,6.0,54,0.00,,,0.00,,2013-01-17 14:23:00,
2013-01-17 06:32:00,28.0,13.0,30.23,SE,127,3.0,5.0,53,0.00,,,0.00,,2013-01-17 14:32:00,
2013-01-17 06:42:00,28.0,13.0,30.23,SE,127,3.0,5.0,53,0.00,,,0.00,,2013-01-17 14:42:00,
2013-01-17 06:52:00,28.0,14.0,30.23,SE,124,3.0,6.0,54,0.00,,,0.00,,2013-01-17 14:52:00,
2013-01-17 07:03:00,28.0,14.0,30.23,East,90,3.0,6.0,55,0.00,,,0.00,,2013-01-17 15:03:00,
2013-01-17 07:12:00,28.0,14.0,30.23,East,90,3.0,6.0,55,0.00,,,0.00,,2013-01-17 15:12:00,
2013-01-17 07:22:00,28.0,14.0,30.23,East,82,3.0,6.0,54,0.00,,,0.00,,2013-01-17 15:22:00,
2013-01-17 07:33:00,28.0,13.0,30.23,East,97,5.0,7.0,53,0.00,,,0.00,,2013-01-17 15:33:00,
2013-01-17 07:42:00,28.0,13.0,30.23,East,97,5.0,7.0,53,0.00,,,0.00,,2013-01-17 15:42:00,
2013-01-17 07:52:00,28.0,14.0,30.23,East,83,5.0,7.0,54,0.00,,,0.00,,2013-01-17 15:52:00,
2013-01-17 08:02:00,28.0,14.0,30.23,SE,142,7.0,8.0,54,0.00,,,0.00,,2013-01-17 16:02:00,
2013-01-17 08:12:00,28.0,14.0,30.23,SE,142,7.0,8.0,54,0.00,,,0.00,,2013-01-17 16:12:00,
2013-01-17 08:22:00,28.0,14.0,30.23,ESE,119,8.0,9.0,54,0.00,,,0.00,,2013-01-17 16:22:00,
2013-01-17 08:33:00,28.0,14.0,30.23,SSE,148,7.0,9.0,54,0.00,,,0.00,,2013-01-17 16:33:00,
2013-01-17 08:43:00,28.0,14.0,30.23,SSE,148,7.0,9.0,54,0.00,,,0.00,,2013-01-17 16:43:00,
2013-01-17 08:52:00,29.0,14.0,30.23,SSE,158,6.0,9.0,54,0.00,,,0.00,,2013-01-17 16:52:00,
2013-01-17 09:02:00,31.0,16.0,30.23,ESE,112,2.0,2.0,53,0.00,,,0.00,,2013-01-17 17:02:00,
2013-01-17 09:12:00,31.0,16.0,30.23,ESE,112,2.0,2.0,53,0.00,,,0.00,,2013-01-17 17:12:00,
2013-01-17 09:22:00,32.0,16.0,30.23,SE,131,3.0,5.0,52,0.00,,,0.00,,2013-01-17 17:22:00,
2013-01-17 09:33:00,34.0,18.0,30.26,South,184,0.0,5.0,51,0.00,,,0.00,,2013-01-17 17:33:00,
2013-01-17 09:42:00,34.0,18.0,30.26,South,184,0.0,5.0,51,0.00,,,0.00,,2013-01-17 17:42:00,
2013-01-17 09:53:00,34.0,18.0,30.26,WNW,292,2.0,5.0,51,0.00,,,0.00,,2013-01-17 17:53:00,
2013-01-17 10:03:00,36.0,19.0,30.26,NNE,22,1.0,2.0,49,0.00,,,0.00,,2013-01-17 18:03:00,
2013-01-17 10:12:00,36.0,19.0,30.26,NNE,22,1.0,2.0,49,0.00,,,0.00,,2013-01-17 18:12:00,
2013-01-17 10:22:00,36.0,19.0,30.26,NNW,338,2.0,2.0,49,0.00,,,0.00,,2013-01-17 18:22:00,
2013-01-17 10:33:00,37.0,18.0,30.23,NNE,29,3.0,5.0,46,0.00,,,0.00,,2013-01-17 18:33:00,
2013-01-17 10:43:00,37.0,18.0,30.23,NNE,29,3.0,5.0,46,0.00,,,0.00,,2013-01-17 18:43:00,
2013-01-17 10:52:00,37.0,18.0,30.23,NE,54,3.0,5.0,45,0.00,,,0.00,,2013-01-17 18:52:00,
2013-01-17 11:03:00,38.0,18.0,30.23,ENE,70,3.0,5.0,44,0.00,,,0.00,,2013-01-17 19:03:00,
2013-01-17 11:12:00,38.0,18.0,30.23,ENE,70,3.0,5.0,44,0.00,,,0.00,,2013-01-17 19:12:00,
2013-01-17 11:22:00,38.0,18.0,30.23,ENE,61,3.0,5.0,43,0.00,,,0.00,,2013-01-17 19:22:00,
2013-01-17 11:32:00,39.0,18.0,30.23,ENE,68,3.0,6.0,43,0.00,,,0.00,,2013-01-17 19:32:00,
2013-01-17 11:42:00,39.0,18.0,30.23,ENE,68,3.0,6.0,43,0.00,,,0.00,,2013-01-17 19:42:00,
2013-01-17 11:52:00,40.0,19.0,30.23,NE,34,2.0,5.0,42,0.00,,,0.00,,2013-01-17 19:52:00,
2013-01-17 12:02:00,41.0,20.0,30.20,NW,323,3.0,5.0,43,0.00,,,0.00,,2013-01-17 20:02:00,
2013-01-17 12:12:00,41.0,20.0,30.20,NW,323,3.0,5.0,43,0.00,,,0.00,,2013-01-17 20:12:00,
2013-01-17 12:22:00,41.0,20.0,30.20,North,350,3.0,5.0,42,0.00,,,0.00,,2013-01-17 20:22:00,
2013-01-17 12:33:00,42.0,21.0,30.20,NW,321,2.0,5.0,43,0.00,,,0.00,,2013-01-17 20:33:00,
2013-01-17 12:43:00,42.0,21.0,30.20,NW,321,2.0,5.0,43,0.00,,,0.00,,2013-01-17 20:43:00,
2013-01-17 12:53:00,42.0,21.0,30.20,NW,315,2.0,3.0,43,0.00,,,0.00,,2013-01-17 20:53:00,
2013-01-17 13:02:00,44.0,22.0,30.17,NNE,22,2.0,3.0,42,0.00,,,0.00,,2013-01-17 21:02:00,
2013-01-17 13:12:00,44.0,22.0,30.17,NNE,22,2.0,3.0,42,0.00,,,0.00,,2013-01-17 21:12:00,
2013-01-17 13:22:00,44.0,23.0,30.17,NNE,29,2.0,3.0,43,0.00,,,0.00,,2013-01-17 21:22:00,
2013-01-17 13:33:00,44.0,22.0,30.17,NNE,20,2.0,5.0,41,0.00,,,0.00,,2013-01-17 21:33:00,
2013-01-17 13:42:00,44.0,22.0,30.17,NNE,20,2.0,5.0,41,0.00,,,0.00,,2013-01-17 21:42:00,
2013-01-17 13:52:00,45.0,22.0,30.17,SSE,148,2.0,5.0,40,0.00,,,0.00,,2013-01-17 21:52:00,
2013-01-17 14:03:00,45.0,22.0,30.17,ENE,67,2.0,3.0,40,0.00,,,0.00,,2013-01-17 22:03:00,
2013-01-17 14:12:00,45.0,22.0,30.17,ENE,67,2.0,3.0,40,0.00,,,0.00,,2013-01-17 22:12:00,
2013-01-17 14:22:00,45.0,22.0,30.17,ENE,69,2.0,3.0,40,0.00,,,0.00,,2013-01-17 22:22:00,
2013-01-17 14:33:00,46.0,23.0,30.17,ENE,68,2.0,3.0,40,0.00,,,0.00,,2013-01-17 22:33:00,
2013-01-17 14:42:00,46.0,23.0,30.17,ENE,68,2.0,3.0,40,0.00,,,0.00,,2013-01-17 22:42:00,
2013-01-17 14:52:00,46.0,23.0,30.17,ENE,57,2.0,3.0,40,0.00,,,0.00,,2013-01-17 22:52:00,
2013-01-17 15:02:00,45.0,22.0,30.14,NE,35,2.0,3.0,40,0.00,,,0.00,,2013-01-17 23:02:00,
2013-01-17 15:12:00,45.0,22.0,30.14,NE,35,2.0,3.0,40,0.00,,,0.00,,2013-01-17 23:12:00,
2013-01-17 15:22:00,44.0,21.0,30.14,NW,306,2.0,5.0,40,0.00,,,0.00,,2013-01-17 23:22:00,
2013-01-17 15:32:00,44.0,22.0,30.14,West,259,0.0,2.0,41,0.00,,,0.00,,2013-01-17 23:32:00,
2013-01-17 15:42:00,44.0,22.0,30.14,West,259,0.0,2.0,41,0.00,,,0.00,,2013-01-17 23:42:00,
2013-01-17 15:52:00,44.0,22.0,30.14,ENE,71,2.0,3.0,41,0.00,,,0.00,,2013-01-17 23:52:00,
2013-01-17 16:02:00,44.0,22.0,30.14,ESE,118,3.0,5.0,41,0.00,,,0.00,,2013-01-18 00:02:00,
2013-01-17 16:12:00,44.0,22.0,30.14,ESE,118,3.0,5.0,41,0.00,,,0.00,,2013-01-18 00:12:00,
2013-01-17 16:22:00,43.0,21.0,30.14,SE,140,2.0,5.0,41,0.00,,,0.00,,2013-01-18 00:22:00,
2013-01-17 16:32:00,43.0,21.0,30.14,SE,140,2.0,5.0,41,0.00,,,0.00,,2013-01-18 00:32:00,
2013-01-17 16:42:00,41.0,19.0,30.14,SE,132,1.0,2.0,41,0.00,,,0.00,,2013-01-18 00:42:00,
2013-01-17 16:52:00,40.0,19.0,30.14,East,92,1.0,2.0,42,0.00,,,0.00,,2013-01-18 00:52:00,
2013-01-17 17:02:00,38.0,18.0,30.17,ESE,121,3.0,5.0,43,0.00,,,0.00,,2013-01-18 01:02:00,
2013-01-17 17:22:00,37.0,17.0,30.17,SE,136,3.0,3.0,44,0.00,,,0.00,,2013-01-18 01:22:00,
2013-01-17 17:32:00,36.0,17.0,30.14,SSE,158,3.0,5.0,45,0.00,,,0.00,,2013-01-18 01:32:00,
2013-01-17 17:52:00,36.0,17.0,30.14,SSE,158,3.0,5.0,45,0.00,,,0.00,,2013-01-18 01:52:00,
2013-01-17 18:02:00,36.0,18.0,30.14,SE,129,4.0,5.0,47,0.00,,,0.00,,2013-01-18 02:02:00,
2013-01-17 18:12:00,36.0,18.0,30.14,SE,129,4.0,5.0,47,0.00,,,0.00,,2013-01-18 02:12:00,
2013-01-17 18:22:00,35.0,17.0,30.14,SE,130,3.0,5.0,47,0.00,,,0.00,,2013-01-18 02:22:00,
2013-01-17 18:32:00,34.0,16.0,30.14,SSE,158,3.0,5.0,48,0.00,,,0.00,,2013-01-18 02:32:00,
2013-01-17 19:02:00,34.0,17.0,30.14,SE,139,1.0,3.0,50,0.00,,,0.00,,2013-01-18 03:02:00,
2013-01-17 19:22:00,33.0,16.0,30.14,SSE,153,3.0,5.0,50,0.00,,,0.00,,2013-01-18 03:22:00,
2013-01-17 19:32:00,33.0,17.0,30.14,SSE,157,3.0,5.0,51,0.00,,,0.00,,2013-01-18 03:32:00,
2013-01-17 19:52:00,33.0,17.0,30.14,SSE,158,3.0,3.0,51,0.00,,,0.00,,2013-01-18 03:52:00,
2013-01-17 20:02:00,33.0,17.0,30.14,SE,135,3.0,3.0,51,0.00,,,0.00,,2013-01-18 04:02:00,
2013-01-17 20:22:00,32.0,16.0,30.14,SE,145,3.0,5.0,51,0.00,,,0.00,,2013-01-18 04:22:00,
2013-01-17 20:32:00,32.0,16.0,30.14,SE,128,3.0,5.0,52,0.00,,,0.00,,2013-01-18 04:32:00,
2013-01-17 20:52:00,32.0,16.0,30.14,SE,136,3.0,5.0,52,0.00,,,0.00,,2013-01-18 04:52:00,
2013-01-17 21:03:00,32.0,17.0,30.14,SSE,158,3.0,5.0,53,0.00,,,0.00,,2013-01-18 05:03:00,
2013-01-17 21:22:00,33.0,18.0,30.14,SE,143,5.0,6.0,53,0.00,,,0.00,,2013-01-18 05:22:00,
2013-01-17 21:33:00,32.0,17.0,30.14,SSE,158,2.0,3.0,53,0.00,,,0.00,,2013-01-18 05:33:00,
2013-01-17 21:42:00,32.0,17.0,30.14,SSE,158,2.0,3.0,53,0.00,,,0.00,,2013-01-18 05:42:00,
2013-01-17 21:52:00,33.0,18.0,30.14,SE,128,3.0,5.0,53,0.00,,,0.00,,2013-01-18 05:52:00,
2013-01-17 22:02:00,33.0,17.0,30.14,SSE,165,3.0,6.0,52,0.00,,,0.00,,2013-01-18 06:02:00,
2013-01-17 22:12:00,33.0,17.0,30.14,SSE,165,3.0,6.0,52,0.00,,,0.00,,2013-01-18 06:12:00,
2013-01-17 22:22:00,33.0,17.0,30.14,SSE,150,3.0,5.0,52,0.00,,,0.00,,2013-01-18 06:22:00,
2013-01-17 22:32:00,33.0,17.0,30.17,WSW,248,2.0,2.0,51,0.00,,,0.00,,2013-01-18 06:32:00,
2013-01-17 22:42:00,33.0,17.0,30.17,WSW,248,2.0,2.0,51,0.00,,,0.00,,2013-01-18 06:42:00,
2013-01-17 22:52:00,33.0,17.0,30.17,SSW,211,1.0,2.0,51,0.00,,,0.00,,2013-01-18 06:52:00,
2013-01-17 23:02:00,31.0,15.0,30.14,SE,133,2.0,2.0,51,0.00,,,0.00,,2013-01-18 07:02:00,
2013-01-17 23:22:00,31.0,15.0,30.14,SE,135,2.0,3.0,51,0.00,,,0.00,,2013-01-18 07:22:00,
2013-01-17 23:32:00,29.0,14.0,30.14,SE,135,3.0,3.0,52,0.00,,,0.00,,2013-01-18 07:32:00,
2013-01-17 23:52:00,29.0,14.0,30.14,SE,139,2.0,3.0,52,0.00,,,0.00,,2013-01-18 07:52:00,